Time;durP1;ratioP1;P1;durP2;ratioP2;P2;SDS_P1;SDS_P2;PMS_P1;PMS_P2;Temp;Humidity;BMP_temperature;BMP_pressure;BME280_temperature;BME280_humidity;BME280_pressure;Samples;Min_cycle;Max_cycle;Signal;HPM_P1;HPM_P2
2023/08/02 00:01:47;;;;;;;6.75;1.92;;;;;;;19.02;60.04;98405.72;4992642;28;20487;-78
2023/08/02 00:04:15;;;;;;;8.43;2.63;;;;;;;19.02;59.95;98406.56;4993200;28;20046;-77
2023/08/02 00:06:43;;;;;;;5.40;1.95;;;;;;;19.02;59.95;98403.88;5062613;23;20057;-81
2023/08/02 00:09:10;;;;;;;5.50;2.03;;;;;;;19.02;59.96;98403.03;4992302;28;20053;-81
2023/08/02 00:11:37;;;;;;;8.82;2.20;;;;;;;19.02;60.19;98400.38;4992186;28;20087;-81
2023/08/02 00:14:04;;;;;;;7.28;2.20;;;;;;;19.02;60.25;98403.88;4992057;28;20054;-81
2023/08/02 00:16:33;;;;;;;7.38;2.28;;;;;;;19.01;60.16;98396.91;4991914;28;20517;-81
2023/08/02 00:18:59;;;;;;;4.10;2.03;;;;;;;19.02;60.08;98395.03;4992353;28;20082;-81
2023/08/02 00:21:26;;;;;;;6.20;2.13;;;;;;;19.01;59.78;98390.72;4991660;28;20093;-81
2023/08/02 00:23:53;;;;;;;7.22;2.08;;;;;;;19.01;60.17;98390.72;4992118;28;20428;-81
2023/08/02 00:26:19;;;;;;;7.35;2.28;;;;;;;19.00;60.41;98394.41;4991632;28;20100;-81
2023/08/02 00:28:46;;;;;;;8.60;2.70;;;;;;;19.00;60.15;98381.88;4974404;28;20090;-81
2023/08/02 00:31:12;;;;;;;6.22;2.50;;;;;;;19.00;60.29;98376.56;4992180;28;20057;-81
2023/08/02 00:33:39;;;;;;;7.32;2.03;;;;;;;19.00;60.30;98378.41;4974771;28;20078;-82
2023/08/02 00:36:05;;;;;;;7.70;2.28;;;;;;;18.99;60.25;98374.91;4991529;28;20121;-81
2023/08/02 00:38:32;;;;;;;9.75;2.15;;;;;;;19.00;60.17;98365.06;4991869;28;20054;-81
2023/08/02 00:41:05;;;;;;;6.38;2.10;;;;;;;18.98;60.60;98375.06;4991635;28;20137;-82
2023/08/02 00:43:42;;;;;;;7.20;2.70;;;;;;;18.95;60.42;98360.25;4991945;28;20158;-80
2023/08/02 00:46:12;;;;;;;6.45;2.65;;;;;;;18.98;60.43;98365.25;4991432;28;20081;-81
2023/08/02 00:48:39;;;;;;;7.47;2.20;;;;;;;18.98;60.04;98364.41;4991665;28;20050;-81
2023/08/02 00:51:15;;;;;;;7.70;2.05;;;;;;;18.96;60.43;98372.59;4991571;28;20492;-81
2023/08/02 00:53:43;;;;;;;6.53;2.00;;;;;;;18.95;60.41;98375.44;4991704;28;20054;-81
2023/08/02 00:56:10;;;;;;;6.15;2.40;;;;;;;18.93;60.37;98366.78;4991322;28;20490;-80
2023/08/02 00:58:37;;;;;;;4.53;2.40;;;;;;;18.92;60.68;98370.47;4991344;28;20046;-81
2023/08/02 01:01:07;;;;;;;6.13;2.67;;;;;;;18.91;60.56;98368.81;4991431;28;20056;-81
2023/08/02 01:03:40;;;;;;;5.18;2.08;;;;;;;18.88;60.58;98368.13;4991656;28;20470;-81
2023/08/02 01:06:30;;;;;;;5.38;2.28;;;;;;;18.87;60.93;98360.31;4991067;28;20050;-81
2023/08/02 01:09:14;;;;;;;7.05;2.20;;;;;;;18.85;60.77;98357.84;4991397;28;20841;-81
2023/08/02 01:11:44;;;;;;;6.05;1.70;;;;;;;18.86;60.64;98356.81;4974267;28;20133;-81
2023/08/02 01:14:16;;;;;;;5.65;2.50;;;;;;;18.86;60.56;98348.00;4991430;28;20066;-81
2023/08/02 01:16:44;;;;;;;8.68;2.83;;;;;;;18.86;60.69;98350.66;4991369;28;20120;-81
2023/08/02 01:19:11;;;;;;;4.88;2.17;;;;;;;18.85;60.81;98339.19;4991501;28;20057;-80
2023/08/02 01:21:38;;;;;;;6.15;2.30;;;;;;;18.83;60.98;98341.19;4991086;28;20451;-81
2023/08/02 01:24:07;;;;;;;7.55;2.42;;;;;;;18.83;60.79;98343.84;4973898;28;20046;-80
2023/08/02 01:26:39;;;;;;;7.13;2.28;;;;;;;18.81;61.19;98347.69;4991076;28;20120;-81
2023/08/02 01:29:08;;;;;;;;;;;;;;;18.80;61.07;98346.84;4991697;28;20046;-81
2023/08/02 01:31:36;;;;;;;9.98;2.35;;;;;;;18.84;60.91;98342.03;4991170;28;19926;-81
2023/08/02 01:34:03;;;;;;;6.72;2.45;;;;;;;18.80;61.09;98343.38;4993937;28;20042;-81
2023/08/02 01:36:30;;;;;;;12.43;2.58;;;;;;;18.78;61.12;98340.03;4994951;28;20059;-81
2023/08/02 01:38:57;;;;;;;7.80;2.35;;;;;;;18.75;60.82;98349.22;4994897;28;20112;-81
2023/08/02 01:41:23;;;;;;;5.47;2.25;;;;;;;18.74;61.11;98350.22;4994453;28;20087;-81
2023/08/02 01:43:50;;;;;;;9.45;2.58;;;;;;;18.73;61.10;98345.91;4994829;28;20491;-80
2023/08/02 01:46:16;;;;;;;7.38;2.47;;;;;;;18.71;61.21;98331.91;4994976;28;20075;-81
2023/08/02 01:48:43;;;;;;;6.85;2.22;;;;;;;18.70;61.09;98328.44;4994944;28;20101;-81
2023/08/02 01:51:10;;;;;;;8.15;2.40;;;;;;;18.68;61.16;98326.94;4994661;28;20597;-81
2023/08/02 01:53:36;;;;;;;5.28;2.40;;;;;;;18.67;61.02;98331.44;4995366;28;20112;-81
2023/08/02 01:56:03;;;;;;;7.78;2.42;;;;;;;18.62;61.25;98323.97;4994530;28;20061;-81
2023/08/02 01:58:30;;;;;;;7.85;2.50;;;;;;;18.60;61.02;98331.31;4994598;28;20057;-81
2023/08/02 02:00:57;;;;;;;7.45;2.50;;;;;;;18.56;61.06;98335.34;4994319;28;20050;-81
2023/08/02 02:03:23;;;;;;;7.47;2.33;;;;;;;18.53;61.03;98337.50;4994576;28;20101;-81
2023/08/02 02:05:52;;;;;;;10.13;2.85;;;;;;;18.49;61.58;98334.38;4994261;28;20137;-81
2023/08/02 02:08:18;;;;;;;7.95;2.22;;;;;;;18.45;61.50;98333.06;4994448;28;20057;-81
2023/08/02 02:10:53;;;;;;;8.80;2.60;;;;;;;18.38;61.93;98340.91;4994158;28;20137;-81
2023/08/02 02:13:21;;;;;;;9.00;2.97;;;;;;;18.38;61.74;98330.25;4994696;28;20050;-80
2023/08/02 02:15:48;;;;;;;8.27;2.80;;;;;;;18.35;61.46;98320.78;4994371;28;20453;-80
2023/08/02 02:18:15;;;;;;;7.07;2.60;;;;;;;18.33;61.38;98327.28;4994355;28;20058;-80
2023/08/02 02:20:41;;;;;;;7.90;2.50;;;;;;;18.29;61.49;98326.81;4993985;28;20081;-80
2023/08/02 02:23:08;;;;;;;10.93;3.13;;;;;;;18.27;61.70;98315.47;4993855;28;20096;-81
2023/08/02 02:25:35;;;;;;;6.43;2.70;;;;;;;18.25;61.80;98300.69;4994112;28;20077;-80
2023/08/02 02:28:01;;;;;;;6.82;2.72;;;;;;;18.21;61.79;98301.03;4994249;28;20109;-81
2023/08/02 02:30:30;;;;;;;6.03;3.20;;;;;;;18.19;62.18;98308.38;4994398;28;20145;-82
2023/08/02 02:32:57;;;;;;;10.75;3.47;;;;;;;18.16;61.92;98311.38;4993855;28;20050;-80
2023/08/02 02:35:23;;;;;;;8.00;2.88;;;;;;;18.13;62.15;98295.72;4993928;28;20513;-81
2023/08/02 02:37:51;;;;;;;5.47;2.92;;;;;;;18.12;62.25;98303.91;4993851;28;20053;-81
2023/08/02 02:40:17;;;;;;;6.78;3.38;;;;;;;18.07;62.31;98305.22;4994148;28;20054;-81
2023/08/02 02:42:44;;;;;;;6.93;3.03;;;;;;;18.06;62.48;98313.38;4993599;28;20058;-81
2023/08/02 02:45:10;;;;;;;6.53;3.70;;;;;;;18.03;62.43;98309.22;4992742;28;20054;-81
2023/08/02 02:47:37;;;;;;;8.02;3.05;;;;;;;18.02;62.19;98298.75;4993718;28;20054;-81
2023/08/02 02:50:04;;;;;;;10.27;3.47;;;;;;;17.99;62.37;98291.94;4993882;28;20054;-80
2023/08/02 02:52:31;;;;;;;10.45;3.10;;;;;;;17.97;62.32;98288.59;4993752;28;20093;-80
2023/08/02 02:54:58;;;;;;;7.95;3.47;;;;;;;17.94;62.36;98284.47;4993694;28;20054;-81
2023/08/02 02:57:24;;;;;;;8.68;3.80;;;;;;;17.92;62.36;98285.63;4993491;28;20506;-81
2023/08/02 02:59:51;;;;;;;13.38;3.83;;;;;;;17.89;62.40;98278.81;4993614;28;20499;-81
2023/08/02 03:02:18;;;;;;;8.93;3.58;;;;;;;17.86;62.37;98273.03;4993298;28;20086;-80
2023/08/02 03:04:44;;;;;;;8.70;3.60;;;;;;;17.83;62.74;98269.69;4993319;28;20050;-82
2023/08/02 03:07:11;;;;;;;5.82;3.00;;;;;;;17.80;63.09;98262.03;4993455;28;20053;-80
2023/08/02 03:09:43;;;;;;;8.60;3.35;;;;;;;17.78;63.12;98263.22;4993499;28;20050;-81
2023/08/02 03:12:18;;;;;;;8.35;3.33;;;;;;;17.70;63.60;98246.28;4992842;28;20054;-81
2023/08/02 03:14:46;;;;;;;7.50;3.50;;;;;;;17.71;62.69;98241.78;4993151;28;20750;-80
2023/08/02 03:17:13;;;;;;;8.25;3.55;;;;;;;17.67;63.10;98237.81;4993076;28;20057;-81
2023/08/02 03:19:39;;;;;;;8.27;3.63;;;;;;;17.65;63.55;98229.16;4993215;28;20475;-81
2023/08/02 03:22:06;;;;;;;9.82;3.00;;;;;;;17.62;63.44;98224.19;4993050;28;20141;-80
2023/08/02 03:24:32;;;;;;;8.88;3.45;;;;;;;17.59;63.36;98214.72;4992985;28;20056;-81
2023/08/02 03:26:59;;;;;;;6.32;3.25;;;;;;;17.57;63.41;98217.53;4992753;28;20537;-81
2023/08/02 03:29:26;;;;;;;6.63;2.72;;;;;;;17.56;63.77;98223.03;4993100;28;20054;-81
2023/08/02 03:31:52;;;;;;;8.80;3.40;;;;;;;17.54;63.85;98225.84;4992965;28;20053;-81
2023/08/02 03:34:18;;;;;;;8.18;3.30;;;;;;;17.53;63.78;98221.53;4992968;28;20054;-81
2023/08/02 03:36:45;;;;;;;5.50;3.33;;;;;;;17.53;63.98;98218.06;4992727;28;20411;-81
2023/08/02 03:39:11;;;;;;;6.70;3.38;;;;;;;17.52;64.20;98217.22;4993235;28;20096;-81
2023/08/02 03:41:38;;;;;;;6.18;3.10;;;;;;;17.53;64.38;98215.41;4992842;28;20054;-82
2023/08/02 03:44:04;;;;;;;5.15;2.97;;;;;;;17.53;64.66;98210.09;4992915;28;20459;-81
2023/08/02 03:46:31;;;;;;;9.23;3.28;;;;;;;17.54;64.17;98225.03;4992399;28;20050;-81
2023/08/02 03:49:00;;;;;;;9.95;3.40;;;;;;;17.54;64.46;98220.53;4992843;28;20108;-81
2023/08/02 03:51:27;;;;;;;8.90;3.05;;;;;;;17.55;64.42;98211.56;4992740;28;20061;-81
2023/08/02 03:53:54;;;;;;;8.18;3.10;;;;;;;17.54;64.42;98209.91;4992562;28;20050;-81
2023/08/02 03:56:20;;;;;;;11.65;3.38;;;;;;;17.54;64.54;98206.44;4991658;28;20050;-81
2023/08/02 03:58:47;;;;;;;8.82;2.78;;;;;;;17.55;64.67;98205.41;4992203;28;20058;-81
2023/08/02 04:01:13;;;;;;;7.32;2.90;;;;;;;17.54;64.47;98193.13;4992372;28;20141;-81
2023/08/02 04:03:40;;;;;;;8.20;3.00;;;;;;;17.53;64.54;98186.97;4975001;28;20525;-81
2023/08/02 04:06:07;;;;;;;7.57;3.10;;;;;;;17.54;64.63;98175.31;4991877;28;20050;-82
2023/08/02 04:08:33;;;;;;;10.93;3.42;;;;;;;17.54;65.01;98175.31;4974494;28;20061;-81
2023/08/02 04:11:06;;;;;;;8.93;2.85;;;;;;;17.52;65.57;98163.19;4992345;28;20046;-81
2023/08/02 04:13:33;;;;;;;8.45;3.05;;;;;;;17.55;64.95;98160.19;4992207;28;20050;-81
2023/08/02 04:16:01;;;;;;;7.25;2.90;;;;;;;17.55;65.46;98160.19;4991978;28;20062;-81
2023/08/02 04:18:28;;;;;;;8.07;2.80;;;;;;;17.56;64.87;98162.69;4991966;28;20622;-81
2023/08/02 04:20:55;;;;;;;8.40;2.75;;;;;;;17.58;64.94;98159.84;4992057;28;20128;-81
2023/08/02 04:23:21;;;;;;;7.20;2.95;;;;;;;17.58;65.02;98158.00;4992126;28;20046;-81
2023/08/02 04:25:48;;;;;;;6.22;3.08;;;;;;;17.60;65.11;98149.84;4991610;28;20473;-81
2023/08/02 04:28:14;;;;;;;4.88;2.55;;;;;;;17.62;65.40;98157.66;4991766;28;20128;-81
2023/08/02 04:30:41;;;;;;;5.35;2.45;;;;;;;17.63;65.14;98156.66;4992094;28;20054;-81
2023/08/02 04:33:07;;;;;;;8.60;3.00;;;;;;;17.65;65.38;98155.47;4974797;28;20050;-80
2023/08/02 04:35:34;;;;;;;5.30;2.50;;;;;;;17.66;65.07;98159.81;4991377;28;20132;-81
2023/08/02 04:38:00;;;;;;;6.05;2.72;;;;;;;17.68;65.23;98151.66;4991669;28;20088;-81
2023/08/02 04:40:26;;;;;;;7.03;2.88;;;;;;;17.68;65.47;98152.47;4991711;28;20054;-81
2023/08/02 04:42:54;;;;;;;8.50;3.22;;;;;;;17.72;65.42;98142.34;4991871;28;20133;-81
2023/08/02 04:45:20;;;;;;;4.63;2.20;;;;;;;17.74;65.48;98147.47;4991324;28;20101;-81
2023/08/02 04:47:47;;;;;;;7.13;2.63;;;;;;;17.77;65.68;98153.28;4991620;28;20715;-81
2023/08/02 04:50:13;;;;;;;10.15;2.97;;;;;;;17.81;65.85;98143.94;4974416;28;20069;-81
2023/08/02 04:52:40;;;;;;;6.15;2.47;;;;;;;17.85;65.74;98144.41;4991598;28;20088;-81
2023/08/02 04:55:07;;;;;;;3.72;2.42;;;;;;;17.87;65.51;98137.06;4991304;28;20147;-81
2023/08/02 04:57:33;;;;;;;9.80;3.20;;;;;;;17.90;65.94;98135.94;4991144;28;20046;-81
2023/08/02 05:00:02;;;;;;;7.38;2.50;;;;;;;17.92;65.86;98132.09;4991434;28;20410;-81
2023/08/02 05:02:33;;;;;;;5.78;2.53;;;;;;;17.95;65.57;98126.38;4991498;28;20395;-81
2023/08/02 05:05:02;;;;;;;7.78;2.53;;;;;;;18.01;65.99;98124.06;4991551;28;20069;-81
2023/08/02 05:07:35;;;;;;;6.53;2.70;;;;;;;18.02;66.48;98118.53;4991528;28;20077;-81
2023/08/02 05:10:06;;;;;;;7.47;2.95;;;;;;;18.08;65.95;98127.69;4991290;28;20050;-81
2023/08/02 05:12:34;;;;;;;4.25;2.22;;;;;;;18.13;66.08;98124.50;4991152;28;20089;-80
2023/08/02 05:15:01;;;;;;;6.38;2.88;;;;;;;18.16;66.06;98118.81;4991126;28;20109;-81
2023/08/02 05:17:29;;;;;;;5.50;2.63;;;;;;;18.18;65.62;98116.78;4991217;28;20091;-80
2023/08/02 05:19:56;;;;;;;5.10;2.50;;;;;;;18.20;65.99;98104.13;4973569;28;20054;-80
2023/08/02 05:22:23;;;;;;;8.52;2.80;;;;;;;18.21;65.95;98097.81;4990958;28;20149;-80
2023/08/02 05:24:51;;;;;;;6.70;2.53;;;;;;;18.22;65.90;98097.63;4991147;28;20054;-80
2023/08/02 05:27:18;;;;;;;5.15;2.78;;;;;;;18.24;65.77;98092.09;4973981;28;20054;-80
2023/08/02 05:29:45;;;;;;;7.90;2.97;;;;;;;18.26;65.97;98081.28;4991161;28;20054;-80
2023/08/02 05:32:12;;;;;;;6.88;2.58;;;;;;;18.28;66.21;98068.63;4990948;28;20054;-80
2023/08/02 05:34:38;;;;;;;5.97;2.85;;;;;;;18.29;65.98;98056.97;4990904;28;20057;-81
2023/08/02 05:37:05;;;;;;;7.45;3.10;;;;;;;18.31;66.02;98047.78;4991150;28;20046;-81
2023/08/02 05:39:31;;;;;;;8.25;2.92;;;;;;;18.34;66.18;98044.75;4991311;28;20050;-80
2023/08/02 05:41:58;;;;;;;6.68;2.72;;;;;;;18.38;66.32;98045.22;4973587;28;20050;-82
2023/08/02 05:44:25;;;;;;;7.15;3.10;;;;;;;18.40;66.06;98042.38;4991248;28;20490;-80
2023/08/02 05:46:51;;;;;;;7.22;3.00;;;;;;;18.44;66.21;98043.69;4991007;28;20058;-81
2023/08/02 05:49:18;;;;;;;8.32;3.00;;;;;;;18.46;66.23;98039.81;4991260;28;20109;-81
2023/08/02 05:51:44;;;;;;;5.63;2.80;;;;;;;18.50;66.19;98032.28;4991064;28;20062;-81
2023/08/02 05:54:11;;;;;;;4.72;2.65;;;;;;;18.53;65.99;98023.09;4991368;28;20061;-80
2023/08/02 05:56:38;;;;;;;6.75;3.25;;;;;;;18.55;66.36;98019.25;4973443;28;20042;-80
2023/08/02 05:59:06;;;;;;;6.25;3.00;;;;;;;18.57;65.91;98009.25;4991288;28;20046;-80
2023/08/02 06:01:32;;;;;;;13.65;3.65;;;;;;;18.62;65.87;98008.69;4990760;28;20487;-80
2023/08/02 06:03:59;;;;;;;9.38;3.42;;;;;;;18.66;66.14;98007.31;4991361;28;20077;-80
2023/08/02 06:08:58;;;;;;;6.30;3.17;;;;;;;18.76;66.05;98007.03;5009932;23;20687;-76
2023/08/02 06:11:24;;;;;;;10.45;3.55;;;;;;;18.82;65.88;98003.66;4991111;28;20038;-77
2023/08/02 06:13:51;;;;;;;7.55;3.47;;;;;;;18.87;65.82;98001.25;4990706;28;20105;-76
2023/08/02 06:16:17;;;;;;;11.63;3.03;;;;;;;18.92;65.78;98000.72;4991494;28;20050;-75
2023/08/02 06:32:44;;;;;;;4.28;2.10;;;;;;;19.11;65.53;97974.50;5253345;23;20467;-75
2023/08/02 06:35:11;;;;;;;8.00;2.50;;;;;;;19.19;65.43;97969.06;4976733;28;20623;-77
2023/08/02 06:37:44;;;;;;;4.65;2.63;;;;;;;19.24;65.71;97968.47;4993600;28;20081;-76
2023/08/02 06:40:11;;;;;;;6.38;2.72;;;;;;;19.28;65.66;97961.75;4993910;28;20484;-76
2023/08/02 06:42:37;;;;;;;5.05;2.63;;;;;;;19.34;65.31;97950.34;4993741;28;20145;-77
2023/08/02 06:47:29;;;;;;;4.70;2.30;;;;;;;19.47;65.25;97954.16;5079373;23;20062;-82
2023/08/02 06:49:56;;;;;;;4.38;2.50;;;;;;;19.53;65.34;97943.56;4994461;28;20137;-83
2023/08/02 06:52:22;;;;;;;7.25;2.63;;;;;;;19.60;65.30;97948.13;4993671;28;20078;-82
2023/08/02 06:54:52;;;;;;;9.23;2.67;;;;;;;19.65;65.55;97938.53;4993275;28;20046;-81
2023/08/02 06:57:23;;;;;;;4.80;2.63;;;;;;;19.74;65.13;97936.53;4993410;28;20137;-83
2023/08/02 06:59:52;;;;;;;4.43;2.15;;;;;;;19.82;65.19;97927.59;4993674;28;20438;-83
2023/08/02 07:02:19;;;;;;;2.72;2.20;;;;;;;19.89;64.71;97922.31;4993078;28;20578;-83
2023/08/02 07:04:45;;;;;;;7.78;2.72;;;;;;;19.95;64.19;97918.03;4993221;28;20046;-83
2023/08/02 07:07:12;;;;;;;3.25;2.40;;;;;;;20.00;64.12;97907.63;4993555;28;20057;-83
2023/08/02 07:09:38;;;;;;;5.22;3.00;;;;;;;20.03;63.95;97904.53;4993447;28;20054;-82
2023/08/02 07:12:05;;;;;;;4.53;2.58;;;;;;;20.04;63.47;97904.34;4993007;28;20488;-83
2023/08/02 07:14:32;;;;;;;6.40;2.78;;;;;;;20.05;63.23;97895.34;4993501;28;20053;-83
2023/08/02 07:16:59;;;;;;;6.82;2.80;;;;;;;20.04;63.21;97888.31;4993267;28;20796;-83
2023/08/02 07:19:25;;;;;;;4.72;2.53;;;;;;;20.05;63.50;97889.16;4993380;28;20058;-82
2023/08/02 07:21:52;;;;;;;6.15;2.60;;;;;;;20.05;63.06;97878.47;4992801;28;20054;-83
2023/08/02 07:24:19;;;;;;;4.75;2.25;;;;;;;20.05;63.21;97879.31;4992966;28;20053;-81
2023/08/02 07:26:45;;;;;;;5.18;2.30;;;;;;;20.07;63.06;97881.75;4992676;28;20069;-82
2023/08/02 07:29:12;;;;;;;5.07;2.13;;;;;;;20.07;62.98;97875.63;4993062;28;20074;-82
2023/08/02 07:31:39;;;;;;;6.05;2.28;;;;;;;20.10;63.29;97872.53;4993231;28;20055;-82
2023/08/02 07:34:08;;;;;;;7.70;2.78;;;;;;;20.10;62.83;97862.69;4993107;28;20050;-82
2023/08/02 07:36:34;;;;;;;4.15;2.30;;;;;;;20.11;62.64;97845.63;4992826;28;20081;-81
2023/08/02 07:39:01;;;;;;;5.40;2.65;;;;;;;20.10;62.71;97827.97;4975475;28;20054;-81
2023/08/02 07:41:28;;;;;;;6.82;2.88;;;;;;;20.10;62.38;97827.13;4974576;28;20054;-82
2023/08/02 07:43:55;;;;;;;4.60;2.47;;;;;;;20.07;62.73;97838.22;4991436;28;20058;-83
2023/08/02 07:46:22;;;;;;;3.17;2.13;;;;;;;20.04;62.54;97834.09;4991555;28;20062;-82
2023/08/02 07:48:51;;;;;;;5.18;2.55;;;;;;;20.01;62.78;97831.81;4991416;28;20080;-82
2023/08/02 07:51:18;;;;;;;3.97;2.58;;;;;;;19.97;62.70;97831.38;4991562;28;20050;-81
2023/08/02 07:53:45;;;;;;;5.57;2.40;;;;;;;19.93;62.89;97832.78;4991545;28;20452;-82
2023/08/02 07:56:12;;;;;;;7.25;3.00;;;;;;;19.89;62.71;97818.16;4992367;28;20419;-81
2023/08/02 07:58:38;;;;;;;6.40;2.75;;;;;;;19.85;62.81;97822.25;4993341;28;20050;-81
2023/08/02 08:01:09;;;;;;;5.32;2.65;;;;;;;19.79;63.00;97815.84;4993226;28;20050;-82
2023/08/02 08:03:37;;;;;;;12.30;2.95;;;;;;;19.75;63.20;97817.25;4992910;28;20043;-82
2023/08/02 08:06:15;;;;;;;6.40;3.08;;;;;;;19.64;63.62;97803.44;4992721;28;20104;-81
2023/08/02 08:08:42;;;;;;;8.70;2.88;;;;;;;19.63;63.49;97796.44;4993068;28;20105;-82
2023/08/02 08:11:09;;;;;;;13.23;2.88;;;;;;;19.58;63.79;97801.53;4992755;28;20507;-82
2023/08/02 08:13:36;;;;;;;5.57;3.00;;;;;;;19.55;64.13;97811.78;4990474;28;20046;-82
2023/08/02 08:16:03;;;;;;;8.38;2.47;;;;;;;19.52;64.59;97813.00;4990896;28;20101;-82
2023/08/02 08:18:31;;;;;;;5.80;2.80;;;;;;;19.50;64.71;97813.19;4974164;28;20140;-81
2023/08/02 08:20:58;;;;;;;5.78;2.60;;;;;;;19.50;64.60;97801.66;4992656;28;20137;-82
2023/08/02 08:23:26;;;;;;;4.90;2.42;;;;;;;19.48;64.67;97793.84;4992616;28;20056;-82
2023/08/02 08:25:52;;;;;;;5.15;2.72;;;;;;;19.49;64.83;97797.38;4992947;28;20411;-82
2023/08/02 08:28:19;;;;;;;3.42;2.60;;;;;;;19.50;65.17;97791.00;4992581;28;20054;-82
2023/08/02 08:30:45;;;;;;;5.40;2.60;;;;;;;19.50;65.36;97775.00;4992616;28;20081;-82
2023/08/02 08:33:12;;;;;;;5.10;2.63;;;;;;;19.49;65.43;97768.00;4992283;28;20129;-82
2023/08/02 08:35:39;;;;;;;9.10;2.90;;;;;;;19.49;65.26;97760.00;4992371;28;20086;-81
2023/08/02 08:38:05;;;;;;;6.22;2.70;;;;;;;19.47;65.51;97754.06;4992520;28;20467;-81
2023/08/02 08:40:32;;;;;;;3.72;2.20;;;;;;;19.45;65.86;97746.25;4992582;28;20054;-82
2023/08/02 08:43:00;;;;;;;4.15;2.83;;;;;;;19.43;65.78;97740.25;4974503;28;20042;-82
2023/08/02 08:45:27;;;;;;;6.22;2.88;;;;;;;19.42;66.15;97724.44;4992298;28;20073;-82
2023/08/02 08:47:54;;;;;;;4.53;2.60;;;;;;;19.40;66.19;97717.47;4991994;28;20094;-82
2023/08/02 08:50:22;;;;;;;5.43;2.58;;;;;;;19.40;66.31;97728.13;4992336;28;20086;-82
2023/08/02 08:52:52;;;;;;;5.72;2.53;;;;;;;19.39;66.24;97723.81;4992009;28;20513;-82
2023/08/02 08:55:20;;;;;;;3.97;2.80;;;;;;;19.40;66.60;97720.13;4992413;28;20058;-82
2023/08/02 08:57:49;;;;;;;4.13;3.00;;;;;;;19.40;66.53;97706.78;4991907;28;20137;-83
2023/08/02 09:00:17;;;;;;;5.13;2.80;;;;;;;19.40;66.51;97698.78;4991933;28;20084;-81
2023/08/02 09:02:45;;;;;;;3.30;1.98;;;;;;;19.40;66.59;97680.13;4974772;28;20058;-82
2023/08/02 09:05:11;;;;;;;4.35;2.63;;;;;;;19.40;66.66;97661.44;4974871;28;20050;-81
2023/08/02 09:07:38;;;;;;;4.75;2.95;;;;;;;19.41;66.74;97640.94;4991844;28;20082;-84
2023/08/02 09:10:06;;;;;;;4.38;2.63;;;;;;;19.41;67.00;97651.59;4992273;28;20054;-82
2023/08/02 09:12:46;;;;;;;4.75;2.70;;;;;;;19.38;67.80;97654.66;4992189;28;20089;-82
2023/08/02 09:15:14;;;;;;;5.82;2.80;;;;;;;19.42;67.48;97631.06;4991836;28;20064;-81
2023/08/02 09:17:52;;;;;;;3.65;2.33;;;;;;;19.39;68.05;97611.78;4991996;28;20046;-81
2023/08/02 09:20:24;;;;;;;4.05;2.45;;;;;;;19.42;67.94;97607.88;4991883;28;20050;-81
2023/08/02 09:22:51;;;;;;;2.60;2.15;;;;;;;19.45;67.63;97607.50;4991860;28;20579;-82
2023/08/02 09:25:27;;;;;;;3.10;2.33;;;;;;;19.42;68.19;97621.22;4991735;28;20050;-82
2023/08/02 09:28:00;;;;;;;3.42;2.30;;;;;;;19.45;68.11;97615.50;4991968;28;20133;-81
2023/08/02 09:30:34;;;;;;;3.63;2.30;;;;;;;19.46;68.30;97618.97;4991679;28;20047;-82
2023/08/02 09:33:04;;;;;;;3.83;2.22;;;;;;;19.48;67.94;97622.28;4992071;28;20065;-83
2023/08/02 09:35:52;;;;;;;3.60;2.40;;;;;;;19.51;67.94;97630.72;4974523;28;20122;-81
2023/08/02 09:38:19;;;;;;;5.72;1.92;;;;;;;19.53;68.09;97623.34;4991934;28;20073;-82
2023/08/02 09:40:47;;;;;;;4.25;2.60;;;;;;;19.56;68.17;97613.28;4991675;28;20050;-82
2023/08/02 09:43:34;;;;;;;2.85;1.98;;;;;;;19.60;68.20;97604.69;4991338;28;20057;-81
2023/08/02 09:46:00;;;;;;;2.50;1.70;;;;;;;19.64;68.42;97600.59;4991284;28;20053;-82
2023/08/02 09:48:36;;;;;;;3.28;1.90;;;;;;;19.64;69.04;97605.94;4991409;28;20495;-81
2023/08/02 09:51:03;;;;;;;3.22;1.75;;;;;;;19.71;68.15;97587.28;4991690;28;20045;-82
2023/08/02 09:53:31;;;;;;;1.50;1.40;;;;;;;19.75;68.08;97577.00;4991823;28;20047;-82
2023/08/02 09:55:58;;;;;;;3.95;1.92;;;;;;;19.78;68.20;97573.97;4995198;28;20046;-81
2023/08/02 09:58:27;;;;;;;2.45;1.67;;;;;;;19.81;68.00;97572.72;4995134;28;20489;-82
2023/08/02 10:00:54;;;;;;;2.40;1.50;;;;;;;19.83;68.22;97560.00;4995153;28;20054;-81
2023/08/02 10:03:23;;;;;;;1.35;1.23;;;;;;;19.85;68.20;97556.09;4995256;28;20078;-82
2023/08/02 10:05:55;;;;;;;3.95;1.52;;;;;;;19.86;68.52;97540.91;4995427;28;20141;-81
2023/08/02 10:08:22;;;;;;;1.50;1.40;;;;;;;19.89;68.26;97533.31;4995342;28;20052;-82
2023/08/02 10:10:49;;;;;;;1.60;1.35;;;;;;;19.90;68.37;97524.28;4994990;28;20052;-81
2023/08/02 10:13:25;;;;;;;1.23;1.13;;;;;;;19.91;69.14;97517.09;4995045;28;20054;-81
2023/08/02 10:15:52;;;;;;;1.50;1.17;;;;;;;19.96;68.69;97517.28;4994940;28;20054;-82
2023/08/02 10:18:20;;;;;;;1.48;1.10;;;;;;;20.01;68.47;97519.41;4994807;28;20081;-82
2023/08/02 10:20:48;;;;;;;1.83;1.10;;;;;;;20.03;68.49;97504.81;4994521;28;20085;-81
2023/08/02 10:23:14;;;;;;;1.55;1.30;;;;;;;20.07;68.10;97501.72;4994206;28;20133;-82
2023/08/02 10:25:42;;;;;;;1.52;1.40;;;;;;;20.08;68.20;97503.38;4994098;28;20053;-82
2023/08/02 10:28:10;;;;;;;1.48;1.27;;;;;;;20.08;67.86;97504.22;4994080;28;20055;-81
2023/08/02 10:30:38;;;;;;;1.83;1.42;;;;;;;20.08;67.65;97493.53;4994375;28;20129;-80
2023/08/02 10:33:15;;;;;;;1.23;1.13;;;;;;;20.04;68.18;97494.97;4993997;28;20050;-81
2023/08/02 10:35:58;;;;;;;1.20;1.10;;;;;;;20.01;68.49;97476.66;4993856;28;20088;-82
2023/08/02 10:38:46;;;;;;;3.28;1.33;;;;;;;19.96;68.36;97474.56;4993863;28;20138;-83
2023/08/02 10:41:33;;;;;;;2.55;1.30;;;;;;;19.94;68.75;97476.63;4994261;28;20073;-81
2023/08/02 10:44:11;;;;;;;1.20;1.00;;;;;;;19.92;68.75;97468.81;4993585;28;20054;-82
2023/08/02 10:46:38;;;;;;;2.95;1.15;;;;;;;19.95;68.14;97466.78;4993694;28;20050;-83
2023/08/02 10:49:10;;;;;;;1.27;1.00;;;;;;;19.92;69.04;97459.97;4993806;28;20137;-81
2023/08/02 10:51:37;;;;;;;1.00;0.90;;;;;;;19.96;68.97;97460.41;4993947;28;20050;-84
2023/08/02 10:54:21;;;;;;;1.13;1.02;;;;;;;19.97;69.56;97454.03;4993718;28;20129;-82
2023/08/02 10:56:54;;;;;;;0.80;0.80;;;;;;;20.01;69.69;97444.63;4993539;28;20500;-81
2023/08/02 10:59:24;;;;;;;1.23;1.05;;;;;;;20.05;69.73;97437.84;4993487;28;20486;-81
2023/08/02 11:01:56;;;;;;;1.25;0.73;;;;;;;20.08;69.45;97442.78;4993834;28;20042;-82
2023/08/02 11:04:24;;;;;;;1.25;1.00;;;;;;;20.16;68.96;97455.09;4993067;28;20052;-84
2023/08/02 11:06:51;;;;;;;1.10;0.98;;;;;;;20.18;68.99;97445.84;4975618;28;20052;-84
2023/08/02 11:09:28;;;;;;;1.23;0.80;;;;;;;20.21;69.31;97435.75;4993459;28;20047;-82
2023/08/02 11:11:55;;;;;;;1.00;0.90;;;;;;;20.25;69.37;97426.31;4993495;28;20050;-82
2023/08/02 11:14:28;;;;;;;1.52;1.20;;;;;;;20.27;69.55;97432.28;4993224;28;20058;-84
2023/08/02 11:16:55;;;;;;;1.95;1.08;;;;;;;20.33;69.20;97431.44;4993114;28;20145;-83
2023/08/02 11:19:22;;;;;;;1.20;1.10;;;;;;;20.37;69.34;97431.84;4993616;28;20134;-84
2023/08/02 11:21:54;;;;;;;2.10;1.20;;;;;;;20.39;69.66;97425.28;4993301;28;20046;-85
2023/08/02 11:24:21;;;;;;;1.25;1.15;;;;;;;20.47;69.07;97428.72;4992782;28;20062;-84
2023/08/02 11:26:58;;;;;;;1.38;1.02;;;;;;;20.49;69.17;97416.81;4993199;28;20141;-84
2023/08/02 11:29:25;;;;;;;2.63;1.60;;;;;;;20.54;69.46;97419.69;4993158;28;20553;-84
2023/08/02 11:31:53;;;;;;;1.83;1.30;;;;;;;20.57;69.44;97421.13;4993241;28;20048;-84
2023/08/02 11:34:27;;;;;;;1.63;1.52;;;;;;;20.62;69.23;97412.44;4976256;28;20046;-83
2023/08/02 11:36:54;;;;;;;2.33;1.20;;;;;;;20.65;69.18;97409.38;4992687;28;20101;-82
2023/08/02 11:39:21;;;;;;;1.75;1.33;;;;;;;20.68;69.23;97407.06;4993099;28;20058;-83
2023/08/02 11:42:02;;;;;;;1.52;1.27;;;;;;;20.68;70.11;97399.06;4993020;28;20054;-83
2023/08/02 11:44:29;;;;;;;1.63;1.35;;;;;;;20.75;69.46;97399.03;4992256;28;20495;-83
2023/08/02 11:46:57;;;;;;;1.85;1.33;;;;;;;20.80;69.77;97403.75;4981365;28;20058;-82
2023/08/02 11:49:24;;;;;;;1.80;1.30;;;;;;;20.86;70.03;97405.56;4975144;28;20093;-82
2023/08/02 11:51:50;;;;;;;1.27;1.17;;;;;;;20.92;69.43;97401.25;4992945;28;20053;-82
2023/08/02 11:54:17;;;;;;;2.13;1.35;;;;;;;20.96;69.86;97405.97;4992704;28;20047;-81
2023/08/02 11:56:44;;;;;;;1.15;1.02;;;;;;;21.02;69.41;97406.16;4992110;28;20054;-83
2023/08/02 11:59:12;;;;;;;1.23;1.13;;;;;;;21.05;69.54;97401.19;4992573;28;20079;-82